Time;durP1;ratioP1;P1;durP2;ratioP2;P2;SDS_P1;SDS_P2;PMS_P1;PMS_P2;Temp;Humidity;BMP_temperature;BMP_pressure;BME280_temperature;BME280_humidity;BME280_pressure;Samples;Min_cycle;Max_cycle;Signal;HPM_P1;HPM_P2
2022/06/07 00:01:28;;;;;;;;;;;;;;;12.38;100.00;101133.63;4992267;28;19949;-31
2022/06/07 00:03:56;;;;;;;;;;;;;;;12.39;100.00;101135.25;4992072;28;19929;-30
2022/06/07 00:06:25;;;;;;;;;;;;;;;12.38;100.00;101130.00;4992735;28;19921;-32
2022/06/07 00:08:53;;;;;;;;;;;;;;;12.37;100.00;101128.31;4992437;28;20020;-32
2022/06/07 00:11:21;;;;;;;;;;;;;;;12.40;100.00;101122.94;4992212;28;19967;-30
2022/06/07 00:13:49;;;;;;;;;;;;;;;12.42;100.00;101131.03;4992507;28;19928;-28
2022/06/07 00:16:17;;;;;;;;;;;;;;;12.38;100.00;101138.38;4992540;28;19925;-32
2022/06/07 00:18:46;;;;;;;;;;;;;;;12.37;100.00;101125.53;4991791;28;19926;-29
2022/06/07 00:21:13;;;;;;;;;;;;;;;12.40;100.00;101124.91;4992503;28;19944;-35
2022/06/07 00:23:42;;;;;;;;;;;;;;;12.43;100.00;101125.13;4992328;28;19928;-36
2022/06/07 00:26:11;;;;;;;;;;;;;;;12.42;100.00;101117.03;4992024;28;19922;-34
2022/06/07 00:28:38;;;;;;;;;;;;;;;12.43;100.00;101113.09;4992391;28;20287;-30
2022/06/07 00:31:06;;;;;;;;;;;;;;;12.42;100.00;101126.25;4992259;28;20306;-35
2022/06/07 00:33:34;;;;;;;;;;;;;;;12.40;100.00;101096.91;5003170;28;20060;-31
2022/06/07 00:36:01;;;;;;;;;;;;;;;12.41;100.00;101110.59;5011608;28;19922;-29
2022/06/07 00:38:30;;;;;;;;;;;;;;;12.45;100.00;101110.81;5011137;28;19941;-36
2022/06/07 00:40:59;;;;;;;;;;;;;;;12.46;100.00;101109.69;5011670;28;19921;-31
2022/06/07 00:43:27;;;;;;;;;;;;;;;12.46;100.00;101106.88;5010904;28;19922;-34
2022/06/07 00:45:55;;;;;;;;;;;;;;;12.46;100.00;101104.09;5015159;28;19921;-29
2022/06/07 00:48:22;;;;;;;;;;;;;;;12.49;100.00;101102.66;5015793;28;19980;-35
2022/06/07 00:50:53;;;;;;;;;;;;;;;12.48;100.00;101103.78;5011872;28;19921;-34
2022/06/07 00:53:22;;;;;;;;;;;;;;;12.48;100.00;101107.41;5014248;28;19922;-28
2022/06/07 00:55:50;;;;;;;;;;;;;;;12.42;100.00;101101.06;5014227;28;20371;-34
2022/06/07 00:58:19;;;;;;;;;;;;;;;12.41;100.00;101088.22;5013719;28;20361;-33
2022/06/07 01:00:48;;;;;;;;;;;;;;;12.45;100.00;101096.00;5013327;28;19928;-30
2022/06/07 01:03:19;;;;;;;;;;;;;;;12.49;100.00;101100.69;5013902;28;19925;-31
2022/06/07 01:05:50;;;;;;;;;;;;;;;12.50;100.00;101102.34;5013693;28;19921;-37
2022/06/07 01:11:10;;;;;;;;;;;;;;;12.48;100.00;101096.22;5012776;28;19932;-32
2022/06/07 01:13:39;;;;;;;;;;;;;;;12.51;100.00;101092.81;5013258;28;19960;-34
2022/06/07 01:16:17;;;;;;;;;;;;;;;12.49;100.00;101100.69;5013858;28;19929;-31
2022/06/07 01:18:46;;;;;;;;;;;;;;;12.48;100.00;101087.81;5013063;28;19936;-28
2022/06/07 01:21:30;;;;;;;;;;;;;;;12.47;100.00;101097.34;5013332;28;19932;-33
2022/06/07 01:23:59;;;;;;;;;;;;;;;12.48;100.00;101096.22;5015159;28;19921;-31
2022/06/07 01:26:35;;;;;;;;;;;;;;;12.50;100.00;101107.94;5013391;28;20374;-30
2022/06/07 01:29:05;;;;;;;;;;;;;;;12.48;100.00;101093.41;5013023;28;19925;-29
2022/06/07 01:31:33;;;;;;;;;;;;;;;12.46;100.00;101097.66;5014627;28;19975;-35
2022/06/07 01:34:01;;;;;;;;;;;;;;;12.48;100.00;101089.78;5009918;28;19976;-37
2022/06/07 01:36:31;;;;;;;;;;;;;;;12.47;100.00;101100.16;5014112;28;19921;-37
2022/06/07 01:41:56;;;;;;;;;;;;;;;12.45;100.00;101094.03;5012670;28;20012;-37
2022/06/07 01:44:28;;;;;;;;;;;;;;;12.47;100.00;101093.72;5009262;28;20019;-33
2022/06/07 01:46:58;;;;;;;;;;;;;;;12.47;100.00;101085.31;5013045;28;20029;-30
2022/06/07 01:49:27;;;;;;;;;;;;;;;12.46;100.00;101086.47;5012522;28;20015;-30
2022/06/07 01:51:56;;;;;;;;;;;;;;;12.46;100.00;101081.69;5014205;28;19922;-30
2022/06/07 01:54:24;;;;;;;;;;;;;;;12.48;100.00;101075.78;5012157;28;19925;-35
2022/06/07 01:56:54;;;;;;;;;;;;;;;12.46;100.00;101081.69;5012514;28;19925;-34
2022/06/07 01:59:22;;;;;;;;;;;;;;;12.48;100.00;101064.59;5013089;28;19978;-36
2022/06/07 02:01:51;;;;;;;;;;;;;;;12.48;100.00;101064.59;5012404;28;19925;-29
2022/06/07 02:04:20;;;;;;;;;;;;;;;12.47;100.00;101058.16;5012349;28;20458;-31
2022/06/07 02:06:49;;;;;;;;;;;;;;;12.44;100.00;101064.38;5012374;28;20008;-32
2022/06/07 02:09:25;;;;;;;;;;;;;;;12.47;100.00;101063.78;5013015;28;19922;-30
2022/06/07 02:11:55;;;;;;;;;;;;;;;12.49;100.00;101055.06;5012370;28;19922;-34
2022/06/07 02:14:23;;;;;;;;;;;;;;;12.51;100.00;101078.81;5013933;28;20356;-33
2022/06/07 02:16:50;;;;;;;;;;;;;;;12.52;100.00;101074.06;5011779;28;20399;-30
2022/06/07 02:19:21;;;;;;;;;;;;;;;12.49;100.00;101067.09;5012540;28;20012;-34
2022/06/07 02:21:48;;;;;;;;;;;;;;;12.48;100.00;101067.41;5012234;28;19921;-33
2022/06/07 02:24:16;;;;;;;;;;;;;;;12.48;100.00;101059.84;5012054;28;19933;-35
2022/06/07 02:26:48;;;;;;;;;;;;;;;12.52;100.00;101066.47;5013635;28;20008;-35
2022/06/07 02:29:17;;;;;;;;;;;;;;;12.49;100.00;101060.66;5013504;28;20470;-33
2022/06/07 02:31:46;;;;;;;;;;;;;;;12.48;100.00;101070.19;5012945;28;20020;-34
2022/06/07 02:34:15;;;;;;;;;;;;;;;12.48;100.00;101056.19;5012619;28;19925;-30
2022/06/07 02:36:44;;;;;;;;;;;;;;;12.51;100.00;101067.63;5013532;28;20012;-32
2022/06/07 02:39:11;;;;;;;;;;;;;;;12.50;100.00;101054.75;5011747;28;19929;-34
2022/06/07 02:41:41;;;;;;;;;;;;;;;12.49;100.00;101050.31;5013307;28;20406;-31
2022/06/07 02:44:10;;;;;;;;;;;;;;;12.54;100.00;101057.78;5013189;28;20015;-36
2022/06/07 02:46:37;;;;;;;;;;;;;;;12.56;100.00;101059.13;5013257;28;19983;-33
2022/06/07 02:49:06;;;;;;;;;;;;;;;12.59;100.00;101054.91;5011830;28;19933;-33
2022/06/07 02:51:35;;;;;;;;;;;;;;;12.60;100.00;101060.16;5012027;28;19929;-32
2022/06/07 02:54:05;;;;;;;;;;;;;;;12.59;100.00;101060.50;5011329;28;20380;-33
2022/06/07 02:56:33;;;;;;;;;;;;;;;12.55;100.00;101053.84;5012988;28;19922;-28
2022/06/07 02:59:01;;;;;;;;;;;;;;;12.51;100.00;101048.03;5011198;28;19929;-34
2022/06/07 03:01:31;;;;;;;;;;;;;;;12.52;100.00;101055.28;5012951;28;19975;-32
2022/06/07 03:04:01;;;;;;;;;;;;;;;12.52;100.00;101046.06;5011625;28;19921;-30
2022/06/07 03:06:33;;;;;;;;;;;;;;;12.53;100.00;101050.53;5010430;28;20667;-33
2022/06/07 03:09:01;;;;;;;;;;;;;;;12.52;100.00;101054.47;5011548;28;19956;-30
2022/06/07 03:11:30;;;;;;;;;;;;;;;12.50;100.00;101057.56;5012393;28;19944;-33
2022/06/07 03:13:59;;;;;;;;;;;;;;;12.47;100.00;101038.56;5011206;28;20012;-31
2022/06/07 03:16:30;;;;;;;;;;;;;;;12.47;100.00;101051.75;5012478;28;19927;-29
2022/06/07 03:19:04;;;;;;;;;;;;;;;12.46;100.00;101058.47;5009255;28;20491;-30
2022/06/07 03:21:37;;;;;;;;;;;;;;;12.41;100.00;101059.38;5010316;28;19921;-34
2022/06/07 03:24:05;;;;;;;;;;;;;;;12.37;100.00;101052.78;5010311;28;19933;-32
2022/06/07 03:26:35;;;;;;;;;;;;;;;12.35;100.00;101049.44;5010547;28;19952;-30
2022/06/07 03:29:10;;;;;;;;;;;;;;;12.36;100.00;101053.91;4998651;28;20020;-32
2022/06/07 03:31:40;;;;;;;;;;;;;;;12.30;100.00;101047.56;4999142;28;19948;-30
2022/06/07 03:34:10;;;;;;;;;;;;;;;12.22;100.00;101051.03;5009259;28;19973;-34
2022/06/07 03:36:40;;;;;;;;;;;;;;;12.17;100.00;101055.91;5010312;28;20306;-28
2022/06/07 03:39:09;;;;;;;;;;;;;;;12.15;100.00;101060.97;5009614;28;19925;-30
2022/06/07 03:41:42;;;;;;;;;;;;;;;12.18;100.00;101065.97;5009748;28;19949;-31
2022/06/07 03:44:17;;;;;;;;;;;;;;;12.12;100.00;101058.78;5009636;28;20271;-33
2022/06/07 03:46:53;;;;;;;;;;;;;;;12.09;100.00;101074.22;5010209;28;20433;-29
2022/06/07 03:49:21;;;;;;;;;;;;;;;12.08;100.00;101059.38;5008027;28;19921;-35
2022/06/07 03:51:53;;;;;;;;;;;;;;;12.11;100.00;101065.50;5004294;28;19957;-34
2022/06/07 03:54:21;;;;;;;;;;;;;;;12.14;100.00;101067.72;5011072;28;19956;-31
2022/06/07 03:56:50;;;;;;;;;;;;;;;12.18;100.00;101071.56;5009953;28;20314;-26
2022/06/07 03:59:22;;;;;;;;;;;;;;;12.22;100.00;101083.78;5010386;28;19965;-32
2022/06/07 04:01:50;;;;;;;;;;;;;;;12.24;100.00;101078.72;5010248;28;19921;-35
2022/06/07 04:04:20;;;;;;;;;;;;;;;12.23;100.00;101071.47;5011295;28;19921;-32
2022/06/07 04:09:39;;;;;;;;;;;;;;;12.19;100.00;101084.41;5009951;28;19925;-31
2022/06/07 04:12:12;;;;;;;;;;;;;;;12.14;100.00;101088.13;5010413;28;19933;-33
2022/06/07 04:14:40;;;;;;;;;;;;;;;12.11;100.00;101085.09;5011701;28;19956;-31
2022/06/07 04:17:10;;;;;;;;;;;;;;;12.07;100.00;101082.06;5009557;28;19928;-35
2022/06/07 04:19:44;;;;;;;;;;;;;;;12.04;100.00;101082.66;5010681;28;19968;-30
2022/06/07 04:22:13;;;;;;;;;;;;;;;12.04;100.00;101082.66;5006548;28;19929;-32
2022/06/07 04:24:51;;;;;;;;;;;;;;;12.03;100.00;101081.84;5006577;28;19980;-29
2022/06/07 04:27:20;;;;;;;;;;;;;;;12.02;100.00;101082.97;5011550;28;20290;-31
2022/06/07 04:29:52;;;;;;;;;;;;;;;11.98;100.00;101084.75;5005630;28;20322;-32
2022/06/07 04:32:21;;;;;;;;;;;;;;;11.98;100.00;101081.94;5009817;28;19922;-35
2022/06/07 04:34:53;;;;;;;;;;;;;;;11.99;100.00;101085.56;5010098;28;19922;-33
2022/06/07 04:37:23;;;;;;;;;;;;;;;11.99;100.00;101086.38;5010602;28;19922;-34
2022/06/07 04:39:56;;;;;;;;;;;;;;;11.98;100.00;101098.72;5010551;28;19925;-34
2022/06/07 04:42:23;;;;;;;;;;;;;;;11.99;100.00;101102.34;5011238;28;19949;-31
2022/06/07 04:44:58;;;;;;;;;;;;;;;12.00;100.00;101104.00;5011077;28;19922;-34
2022/06/07 04:47:37;;;;;;;;;;;;;;;11.99;100.00;101096.75;5010456;28;20389;-32
2022/06/07 04:50:09;;;;;;;;;;;;;;;12.01;100.00;101109.28;5010131;28;19925;-31
2022/06/07 04:52:39;;;;;;;;;;;;;;;12.02;100.00;101108.16;5009663;28;19930;-35
2022/06/07 04:55:08;;;;;;;;;;;;;;;12.02;100.00;101093.31;5011133;28;20359;-35
2022/06/07 04:57:36;;;;;;;;;;;;;;;12.04;100.00;101105.03;5009983;28;20268;-31
2022/06/07 05:00:05;;;;;;;;;;;;;;;12.06;100.00;101097.19;5009776;28;19964;-29
2022/06/07 05:02:36;;;;;;;;;;;;;;;12.07;100.00;101099.69;5009541;28;19921;-32
2022/06/07 05:05:05;;;;;;;;;;;;;;;12.12;100.00;101106.34;5010103;28;19926;-32
2022/06/07 05:07:34;;;;;;;;;;;;;;;12.14;100.00;101106.88;5010681;28;20383;-36
2022/06/07 05:10:07;;;;;;;;;;;;;;;12.18;100.00;101096.75;5009581;28;19929;-32
2022/06/07 05:12:40;;;;;;;;;;;;;;;12.21;100.00;101104.50;4999787;28;20008;-33
2022/06/07 05:15:10;;;;;;;;;;;;;;;12.23;100.00;101103.06;5009874;28;19963;-30
2022/06/07 05:17:47;;;;;;;;;;;;;;;12.26;100.00;101101.63;5006349;28;19925;-33
2022/06/07 05:20:17;;;;;;;;;;;;;;;12.25;100.00;101102.75;5008640;28;19937;-29
2022/06/07 05:22:49;;;;;;;;;;;;;;;12.24;100.00;101103.91;5009581;28;19980;-37
2022/06/07 05:25:19;;;;;;;;;;;;;;;12.23;100.00;101103.06;5009853;28;19956;-32
2022/06/07 05:27:50;;;;;;;;;;;;;;;12.24;100.00;101107.53;5009365;28;20702;-31
2022/06/07 05:30:24;;;;;;;;;;;;;;;12.23;100.00;101114.25;4998090;28;20006;-28
2022/06/07 05:33:05;;;;;;;;;;;;;;;12.25;100.00;101112.00;5011869;28;19947;-31
2022/06/07 05:35:48;;;;;;;;;;;;;;;12.25;100.00;101120.38;5011767;28;19921;-38
2022/06/07 05:38:21;;;;;;;;;;;;;;;12.25;100.00;101128.78;5011818;28;19931;-31
2022/06/07 05:40:57;;;;;;;;;;;;;;;12.24;100.00;101120.69;5011303;28;19944;-36
2022/06/07 05:43:25;;;;;;;;;;;;;;;12.24;100.00;101117.88;5011688;28;19960;-34
2022/06/07 05:45:57;;;;;;;;;;;;;;;12.25;100.00;101125.97;5012011;28;19984;-35
2022/06/07 05:48:42;;;;;;;;;;;;;;;12.28;100.00;101128.19;5011872;28;20015;-31
2022/06/07 05:51:14;;;;;;;;;;;;;;;12.30;100.00;101120.31;5028240;28;20302;-29
2022/06/07 05:53:43;;;;;;;;;;;;;;;12.34;100.00;101123.34;5011563;28;20367;-36
2022/06/07 05:56:13;;;;;;;;;;;;;;;12.36;100.00;101124.69;5012775;28;20321;-30
2022/06/07 05:58:41;;;;;;;;;;;;;;;12.38;100.00;101116.00;5008628;28;20032;-34
2022/06/07 06:01:12;;;;;;;;;;;;;;;12.39;100.00;101117.63;5008900;28;19952;-34
2022/06/07 06:03:44;;;;;;;;;;;;;;;12.38;100.00;101118.81;5012185;28;19972;-34
2022/06/07 06:06:14;;;;;;;;;;;;;;;12.37;100.00;101125.53;5011855;28;19921;-31
2022/06/07 06:11:37;;;;;;;;;;;;;;;12.41;100.00;101132.97;5010591;28;19921;-30
2022/06/07 06:14:34;;;;;;;;;;;;;;;12.39;100.00;101128.81;5012155;28;19921;-31
2022/06/07 06:17:08;;;;;;;;;;;;;;;12.38;100.00;101144.81;5001470;28;19968;-34
2022/06/07 06:19:46;;;;;;;;;;;;;;;12.38;100.00;101130.00;5012516;28;19922;-31
2022/06/07 06:22:15;;;;;;;;;;;;;;;12.38;100.00;101138.38;5012512;28;20362;-32
2022/06/07 06:24:52;;;;;;;;;;;;;;;12.37;100.00;101148.75;5011906;28;19968;-32
2022/06/07 06:27:20;;;;;;;;;;;;;;;12.25;100.00;101148.38;5011882;28;20456;-31
2022/06/07 06:29:50;;;;;;;;;;;;;;;12.13;100.00;101142.41;5012752;28;19975;-31
2022/06/07 06:32:18;;;;;;;;;;;;;;;12.05;100.00;101140.28;5012025;28;20437;-32
2022/06/07 06:34:49;;;;;;;;;;;;;;;12.03;100.00;101142.53;5012034;28;20013;-33
2022/06/07 06:37:17;;;;;;;;;;;;;;;12.04;100.00;101145.03;5011936;28;20334;-33
2022/06/07 06:39:46;;;;;;;;;;;;;;;12.09;100.00;101152.53;5013024;28;20379;-35
2022/06/07 06:42:16;;;;;;;;;;;;;;;12.12;100.00;101149.13;5012051;28;19921;-32
2022/06/07 06:45:09;;;;;;;;;;;;;;;12.13;100.00;101158.34;5012710;28;20063;-29
2022/06/07 06:47:40;;;;;;;;;;;;;;;12.17;100.00;101159.44;5012050;28;19925;-37
2022/06/07 06:50:11;;;;;;;;;;;;;;;12.24;100.00;101160.69;5011820;28;19926;-30
2022/06/07 06:52:39;;;;;;;;;;;;;;;12.30;100.00;101159.47;5012822;28;19921;-32
2022/06/07 06:55:07;;;;;;;;;;;;;;;12.41;100.00;101168.53;5011489;28;19932;-36
2022/06/07 06:57:36;;;;;;;;;;;;;;;12.49;100.00;101167.88;5011941;28;20015;-36
2022/06/07 07:00:08;;;;;;;;;;;;;;;12.54;100.00;101170.59;5011289;28;19932;-38
2022/06/07 07:02:39;;;;;;;;;;;;;;;12.55;100.00;101177.84;5011546;28;19972;-31
2022/06/07 07:05:11;;;;;;;;;;;;;;;12.59;100.00;101173.28;5011127;28;19925;-32
2022/06/07 07:07:41;;;;;;;;;;;;;;;12.60;100.00;101171.31;5007884;28;20298;-30
2022/06/07 07:10:12;;;;;;;;;;;;;;;12.60;100.00;101188.09;5011499;28;19936;-37
2022/06/07 07:12:41;;;;;;;;;;;;;;;12.67;100.00;101182.97;5012267;28;19964;-28
2022/06/07 07:15:13;;;;;;;;;;;;;;;12.69;100.00;101184.31;5011200;28;20354;-29
2022/06/07 07:17:49;;;;;;;;;;;;;;;12.77;100.00;101182.81;5012656;28;19925;-33
2022/06/07 07:20:18;;;;;;;;;;;;;;;12.85;100.00;101186.84;5012324;28;19921;-31
2022/06/07 07:22:49;;;;;;;;;;;;;;;12.88;100.00;101175.88;5011112;28;19956;-28
2022/06/07 07:25:19;;;;;;;;;;;;;;;12.98;100.00;101180.47;5012410;28;19921;-34
2022/06/07 07:27:50;;;;;;;;;;;;;;;13.11;100.00;101193.69;5010398;28;19979;-35
2022/06/07 07:30:20;;;;;;;;;;;;;;;13.21;100.00;101185.09;5011299;28;19948;-36
2022/06/07 07:32:48;;;;;;;;;;;;;;;13.29;100.00;101187.19;5012422;28;19921;-34
2022/06/07 07:35:17;;;;;;;;;;;;;;;13.36;100.00;101187.63;5010670;28;19955;-35
2022/06/07 07:37:55;;;;;;;;;;;;;;;13.43;100.00;101190.84;5011049;28;19925;-35
2022/06/07 07:40:22;;;;;;;;;;;;;;;13.52;100.00;101198.53;5010489;28;20000;-31
2022/06/07 07:42:51;;;;;;;;;;;;;;;13.53;100.00;101197.41;5012475;28;19968;-30
2022/06/07 07:45:29;;;;;;;;;;;;;;;13.55;100.00;101204.38;5012176;28;20366;-34
2022/06/07 07:47:59;;;;;;;;;;;;;;;13.57;100.00;101195.66;5011758;28;19944;-33
2022/06/07 07:50:28;;;;;;;;;;;;;;;13.59;100.00;101198.97;5010603;28;20282;-32
2022/06/07 07:52:58;;;;;;;;;;;;;;;13.59;100.00;101201.78;5010761;28;20347;-36
2022/06/07 07:55:27;;;;;;;;;;;;;;;13.59;100.00;101204.59;4999789;28;19921;-31
2022/06/07 07:57:57;;;;;;;;;;;;;;;13.61;100.00;101200.28;5010684;28;19925;-28
2022/06/07 08:00:25;;;;;;;;;;;;;;;13.64;100.00;101205.28;5010779;28;19921;-32
2022/06/07 08:03:02;;;;;;;;;;;;;;;13.63;100.00;101206.44;5010245;28;19922;-30
2022/06/07 08:05:52;;;;;;;;;;;;;;;13.65;100.00;101214.53;5002025;28;19925;-31
2022/06/07 08:08:20;;;;;;;;;;;;;;;13.66;100.00;101221.81;5012027;28;19927;-34
2022/06/07 08:10:47;;;;;;;;;;;;;;;13.64;100.00;101215.66;5011426;28;19921;-39
2022/06/07 08:13:17;;;;;;;;;;;;;;;13.61;100.00;101216.28;5011617;28;19922;-34
2022/06/07 08:15:45;;;;;;;;;;;;;;;13.62;100.00;101220.75;5011951;28;19948;-29
2022/06/07 08:18:13;;;;;;;;;;;;;;;13.64;100.00;101218.47;5012000;28;19921;-31
2022/06/07 08:20:40;;;;;;;;;;;;;;;13.66;100.00;101219.00;5011725;28;19922;-33
2022/06/07 08:23:10;;;;;;;;;;;;;;;13.68;100.00;101216.72;5010578;28;19926;-32
2022/06/07 08:25:38;;;;;;;;;;;;;;;13.69;100.00;101215.56;5010963;28;20016;-35
2022/06/07 08:28:06;;;;;;;;;;;;;;;13.69;100.00;101218.38;5010894;28;19931;-30
2022/06/07 08:30:36;;;;;;;;;;;;;;;13.70;100.00;101217.25;5010715;28;19922;-31
2022/06/07 08:37:32;;;;;;;;;;;;;;;13.75;100.00;101217.16;5009912;28;20295;-37
2022/06/07 08:38:38;;;;;;;;;;;;;;;13.96;100.00;101217.56;5011115;28;20462;-34
2022/06/07 08:41:06;;;;;;;;;;;;;;;14.08;100.00;101221.47;5011490;28;19921;-32
2022/06/07 08:43:34;;;;;;;;;;;;;;;14.20;100.00;101228.50;5011803;28;20272;-36
2022/06/07 08:46:03;;;;;;;;;;;;;;;14.32;100.00;101223.19;5011389;28;19976;-33
2022/06/07 08:48:40;;;;;;;;;;;;;;;14.39;100.00;101226.38;5006743;28;19921;-36
2022/06/07 08:51:15;;;;;;;;;;;;;;;14.51;100.00;101220.28;5010793;28;19921;-34
2022/06/07 08:53:45;;;;;;;;;;;;;;;14.60;100.00;101232.38;5006880;28;19928;-32
2022/06/07 08:56:15;;;;;;;;;;;;;;;14.76;100.00;101225.28;5011468;28;20334;-36
2022/06/07 08:58:44;;;;;;;;;;;;;;;15.00;100.00;101225.75;5010757;28;19921;-34
2022/06/07 09:01:18;;;;;;;;;;;;;;;15.35;100.00;101231.63;5011129;28;20457;-28
2022/06/07 09:03:53;;;;;;;;;;;;;;;15.59;100.00;101226.47;5011209;28;19925;-34
2022/06/07 09:06:22;;;;;;;;;;;;;;;15.77;100.00;101235.84;5014482;28;19928;-33
2022/06/07 09:08:51;;;;;;;;;;;;;;;15.87;100.00;101232.72;5014742;28;19921;-32
2022/06/07 09:14:06;;;;;;;;;;;;;;;16.25;100.00;101237.78;5014428;28;20375;-34
2022/06/07 09:16:38;;;;;;;;;;;;;;;16.31;100.00;101242.94;5014713;28;19956;-33
2022/06/07 09:19:11;;;;;;;;;;;;;;;16.30;100.00;101241.28;5014407;28;19929;-36
2022/06/07 09:21:40;;;;;;;;;;;;;;;16.26;100.00;101245.91;5014801;28;19937;-33
2022/06/07 09:24:10;;;;;;;;;;;;;;;16.33;100.00;101249.06;5014889;28;19935;-31
2022/06/07 09:26:38;;;;;;;;;;;;;;;16.39;100.00;101252.53;5014039;28;19968;-33
2022/06/07 09:29:09;;;;;;;;;;;;;;;16.44;100.00;101241.13;5014452;28;19971;-32
2022/06/07 09:31:40;;;;;;;;;;;;;;;16.52;100.00;101245.94;5014610;28;20356;-31
2022/06/07 09:34:15;;;;;;;;;;;;;;;16.73;100.00;101241.34;5014001;28;19921;-36
2022/06/07 09:36:44;;;;;;;;;;;;;;;17.05;100.00;101244.81;5014300;28;19921;-37
2022/06/07 09:39:16;;;;;;;;;;;;;;;17.30;100.00;101235.47;5014325;28;19921;-35
2022/06/07 09:41:45;;;;;;;;;;;;;;;17.42;100.00;101246.88;5014022;28;20034;-33
2022/06/07 09:44:15;;;;;;;;;;;;;;;17.48;100.00;101251.19;5014335;28;19921;-31
2022/06/07 09:46:47;;;;;;;;;;;;;;;17.62;100.00;101248.16;5003945;28;19925;-35
2022/06/07 09:49:26;;;;;;;;;;;;;;;17.67;100.00;101252.81;5003569;28;19932;-31
2022/06/07 09:51:54;;;;;;;;;;;;;;;17.68;100.00;101254.47;5014274;28;19972;-32
2022/06/07 09:54:22;;;;;;;;;;;;;;;17.56;100.00;101250.34;5013748;28;19928;-33
2022/06/07 09:57:00;;;;;;;;;;;;;;;17.51;100.00;101250.53;5013977;28;19982;-34
2022/06/07 09:59:43;;;;;;;;;;;;;;;17.49;100.00;101250.03;5014097;28;19922;-35
2022/06/07 10:02:25;;;;;;;;;;;;;;;17.40;100.00;101239.91;5002241;28;20267;-37
2022/06/07 10:04:58;;;;;;;;;;;;;;;17.17;100.00;101253.44;5004642;28;20268;-32
2022/06/07 10:07:30;;;;;;;;;;;;;;;17.02;100.00;101245.47;5003675;28;20392;-34
2022/06/07 10:10:04;;;;;;;;;;;;;;;16.92;100.00;101257.09;5003402;28;19922;-32
2022/06/07 10:12:36;;;;;;;;;;;;;;;16.81;100.00;101248.97;5003225;28;19921;-34
2022/06/07 10:15:15;;;;;;;;;;;;;;;16.85;100.00;101240.69;5002434;28;19922;-35
2022/06/07 10:17:56;;;;;;;;;;;;;;;16.92;100.00;101251.47;5005544;28;19921;-35
2022/06/07 10:20:28;;;;;;;;;;;;;;;17.06;100.00;101247.28;5004342;28;19965;-31
2022/06/07 10:23:10;;;;;;;;;;;;;;;17.19;100.00;101251.91;5003030;28;19965;-35
2022/06/07 10:25:40;;;;;;;;;;;;;;;17.27;100.00;101250.25;5004472;28;20019;-30
2022/06/07 10:28:13;;;;;;;;;;;;;;;17.26;100.00;101254.22;5013620;28;19928;-37
2022/06/07 10:30:47;;;;;;;;;;;;;;;17.20;100.00;101256.38;5012954;28;19929;-34
2022/06/07 10:33:23;;;;;;;;;;;;;;;17.14;100.00;101254.09;5002585;28;19926;-35
2022/06/07 10:35:56;;;;;;;;;;;;;;;17.23;100.00;101257.72;5003646;28;19936;-30
2022/06/07 10:38:35;;;;;;;;;;;;;;;17.30;100.00;101252.41;5001270;28;19928;-33
2022/06/07 10:41:05;;;;;;;;;;;;;;;17.28;100.00;101251.09;5003555;28;19943;-32
2022/06/07 10:43:39;;;;;;;;;;;;;;;17.28;100.00;101259.53;5012659;28;19932;-33
2022/06/07 10:46:11;;;;;;;;;;;;;;;17.33;100.00;101256.56;5002395;28;19983;-33
2022/06/07 10:48:50;;;;;;;;;;;;;;;17.22;100.00;101256.06;5002716;28;19956;-36
2022/06/07 10:54:11;;;;;;;;;;;;;;;17.30;100.00;101265.69;5003673;28;19925;-27
2022/06/07 10:56:40;;;;;;;;;;;;;;;17.44;100.00;101258.66;5013368;28;19921;-37
2022/06/07 10:59:13;;;;;;;;;;;;;;;17.39;99.81;101261.66;5002127;28;20024;-29
2022/06/07 11:01:45;;;;;;;;;;;;;;;17.24;98.76;101262.19;5002703;28;20393;-31
2022/06/07 11:09:49;;;;;;;;;;;;;;;17.00;100.00;101278.81;5012883;28;19921;-32
2022/06/07 11:12:20;;;;;;;;;;;;;;;16.95;100.00;101276.19;5012237;28;19932;-32
2022/06/07 11:14:57;;;;;;;;;;;;;;;16.77;98.16;101279.00;5012371;28;19957;-34
2022/06/07 11:17:29;;;;;;;;;;;;;;;16.72;100.00;101287.59;5012494;28;19921;-31
2022/06/07 11:19:59;;;;;;;;;;;;;;;16.73;100.00;101282.81;5012296;28;19948;-34
2022/06/07 11:22:31;;;;;;;;;;;;;;;16.67;100.00;101289.75;5012482;28;19932;-30
2022/06/07 11:25:00;;;;;;;;;;;;;;;16.69;100.00;101279.81;5002075;28;19928;-31
2022/06/07 11:27:30;;;;;;;;;;;;;;;16.68;100.00;101280.97;5000370;28;19931;-32
2022/06/07 11:30:16;;;;;;;;;;;;;;;16.57;100.00;101285.25;5012321;28;19921;-30
2022/06/07 11:32:50;;;;;;;;;;;;;;;16.37;100.00;101285.88;5002049;28;19975;-31
2022/06/07 11:35:37;;;;;;;;;;;;;;;16.30;100.00;101285.50;5001494;28;20402;-30
2022/06/07 11:38:14;;;;;;;;;;;;;;;16.26;100.00;101284.50;5003909;28;19926;-31
2022/06/07 11:40:42;;;;;;;;;;;;;;;16.20;100.00;101289.44;5011761;28;19925;-34
2022/06/07 11:43:24;;;;;;;;;;;;;;;16.06;100.00;101286.75;5011924;28;19945;-32
2022/06/07 11:45:52;;;;;;;;;;;;;;;15.98;100.00;101290.38;5003467;28;19967;-30
2022/06/07 11:48:23;;;;;;;;;;;;;;;15.99;100.00;101294.84;5011700;28;20317;-36
2022/06/07 11:50:57;;;;;;;;;;;;;;;16.01;100.00;101289.72;5001655;28;19960;-29
2022/06/07 11:53:32;;;;;;;;;;;;;;;15.94;100.00;101295.00;5002292;28;20009;-28
2022/06/07 11:56:03;;;;;;;;;;;;;;;15.88;100.00;101289.84;5001485;28;19932;-28
2022/06/07 11:58:49;;;;;;;;;;;;;;;15.79;100.00;101292.59;5001373;28;20020;-28
2022/06/07 12:01:24;;;;;;;;;;;;;;;15.80;100.00;101291.44;5001902;28;20386;-29
2022/06/07 12:04:06;;;;;;;;;;;;;;;15.78;100.00;101293.78;5011833;28;19921;-29
2022/06/07 12:06:34;;;;;;;;;;;;;;;15.76;100.00;101294.09;5002983;28;19926;-28
2022/06/07 12:09:05;;;;;;;;;;;;;;;15.77;100.00;101297.75;5011357;28;19925;-28
2022/06/07 12:11:40;;;;;;;;;;;;;;;15.81;100.00;101293.94;5001553;28;20309;-27
2022/06/07 12:14:19;;;;;;;;;;;;;;;15.94;100.00;101297.81;5001977;28;19921;-29
2022/06/07 12:16:53;;;;;;;;;;;;;;;16.05;100.00;101296.34;5001048;28;19992;-28
2022/06/07 12:19:22;;;;;;;;;;;;;;;16.05;100.00;101295.53;5011582;28;19921;-27
2022/06/07 12:21:52;;;;;;;;;;;;;;;15.95;100.00;101299.47;5000058;28;19927;-28
2022/06/07 12:24:21;;;;;;;;;;;;;;;15.93;100.00;101298.97;5011706;28;19921;-28
2022/06/07 12:26:50;;;;;;;;;;;;;;;16.01;100.00;101300.13;5011514;28;19944;-28
2022/06/07 12:29:19;;;;;;;;;;;;;;;16.17;100.00;101302.22;5011191;28;20404;-27
2022/06/07 12:31:48;;;;;;;;;;;;;;;16.22;100.00;101295.59;5008216;28;19929;-28
2022/06/07 12:34:18;;;;;;;;;;;;;;;16.20;100.00;101297.88;5008651;28;19944;-27
2022/06/07 12:36:50;;;;;;;;;;;;;;;16.14;100.00;101299.22;5011246;28;19927;-30
2022/06/07 12:39:18;;;;;;;;;;;;;;;16.22;100.00;101306.00;5013309;28;19928;-27
2022/06/07 12:41:49;;;;;;;;;;;;;;;16.32;100.00;101302.91;5015475;28;19925;-29
2022/06/07 12:44:21;;;;;;;;;;;;;;;16.41;100.00;101300.94;5015067;28;19930;-28
2022/06/07 12:46:49;;;;;;;;;;;;;;;16.44;100.00;101303.94;5015163;28;19975;-28
2022/06/07 12:49:20;;;;;;;;;;;;;;;16.44;100.00;101303.94;5015353;28;19925;-29
2022/06/07 12:51:54;;;;;;;;;;;;;;;16.45;100.00;101299.94;5014703;28;19922;-28
2022/06/07 12:54:23;;;;;;;;;;;;;;;16.56;100.00;101306.13;5012309;28;19921;-27
2022/06/07 12:56:53;;;;;;;;;;;;;;;16.72;100.00;101303.69;5014377;28;19921;-28
2022/06/07 12:59:24;;;;;;;;;;;;;;;16.86;100.00;101299.53;5015329;28;19927;-29
2022/06/07 13:01:52;;;;;;;;;;;;;;;16.90;100.00;101304.53;5015536;28;19921;-27
2022/06/07 13:04:23;;;;;;;;;;;;;;;16.98;100.00;101309.34;5014599;28;19968;-27
2022/06/07 13:06:58;;;;;;;;;;;;;;;17.12;100.00;101301.53;5014773;28;19925;-29
2022/06/07 13:09:48;;;;;;;;;;;;;;;17.22;100.00;101304.84;5011637;28;19925;-28
2022/06/07 13:12:19;;;;;;;;;;;;;;;17.28;100.00;101305.50;5009442;28;19928;-27
2022/06/07 13:15:01;;;;;;;;;;;;;;;17.39;100.00;101301.16;5011910;28;20012;-27